Aviation Digital Data Service (ADDS)

Output produced by METARs form (1943 UTC 18 July 2019)
found at http://aviationweather.gov/metar/data/
 
METAR text: KRNT 181853Z 18005KT 7SM FEW034 BKN075 20/11 A3005 RMK AO2 SLP181 T02000106
Conditions at: KRNT (RENTON , WA, US) observed 1853 UTC 18 July 2019
Temperature: 20.0°C (68°F)
Dewpoint: 10.6°C (51°F) [RH = 55%]
Pressure (altimeter): 30.05 inches Hg (1017.7 mb)
[Sea-level pressure: 1018.1 mb]
Winds: from the S (180 degrees) at 6 MPH (5 knots; 2.6 m/s)
Visibility: 7 miles (11 km)
Ceiling: 7500 feet AGL
Clouds: few clouds at 3400 feet AGL
broken clouds at 7500 feet AGL
Weather: no significant weather observed at this time

METAR text: KRNT 181753Z 17007KT 7SM BKN030 OVC043 18/11 A3005 RMK AO2 SLP181 60000 T01780106 10178 20139 51007
Conditions at: KRNT (RENTON , WA, US) observed 1753 UTC 18 July 2019
Temperature: 17.8°C (64°F)
Dewpoint: 10.6°C (51°F) [RH = 63%]
Pressure (altimeter): 30.05 inches Hg (1017.7 mb)
[Sea-level pressure: 1018.1 mb]
Winds: from the S (170 degrees) at 8 MPH (7 knots; 3.6 m/s)
Visibility: 7 miles (11 km)
Ceiling: 3000 feet AGL
Clouds: broken clouds at 3000 feet AGL
overcast cloud deck at 4300 feet AGL
Weather: no significant weather observed at this time